sensor_id;sensor_type;location;lat;lon;timestamp;P1;durP1;ratioP1;P2;durP2;ratioP2
36379;SDS011;22411;53.016;18.632;2023-11-19T00:01:33;84.93;;;40.77;;
36379;SDS011;22411;53.016;18.632;2023-11-19T00:03:59;78.83;;;42.17;;
36379;SDS011;22411;53.016;18.632;2023-11-19T00:06:25;81.93;;;40.03;;
36379;SDS011;22411;53.016;18.632;2023-11-19T00:08:50;78.00;;;39.77;;
36379;SDS011;22411;53.016;18.632;2023-11-19T00:11:17;77.43;;;38.80;;
36379;SDS011;22411;53.016;18.632;2023-11-19T00:13:42;75.50;;;38.37;;
36379;SDS011;22411;53.016;18.632;2023-11-19T00:16:08;80.40;;;37.27;;
36379;SDS011;22411;53.016;18.632;2023-11-19T00:18:35;77.73;;;40.67;;
36379;SDS011;22411;53.016;18.632;2023-11-19T00:21:02;87.60;;;41.53;;
36379;SDS011;22411;53.016;18.632;2023-11-19T00:23:28;74.60;;;41.10;;
36379;SDS011;22411;53.016;18.632;2023-11-19T00:25:54;82.10;;;41.50;;
36379;SDS011;22411;53.016;18.632;2023-11-19T00:28:19;64.97;;;35.00;;
36379;SDS011;22411;53.016;18.632;2023-11-19T00:30:45;67.50;;;37.00;;
36379;SDS011;22411;53.016;18.632;2023-11-19T00:33:11;67.83;;;35.83;;
36379;SDS011;22411;53.016;18.632;2023-11-19T00:35:37;69.03;;;35.80;;
36379;SDS011;22411;53.016;18.632;2023-11-19T00:38:02;69.60;;;35.50;;
36379;SDS011;22411;53.016;18.632;2023-11-19T00:40:29;72.23;;;34.00;;
36379;SDS011;22411;53.016;18.632;2023-11-19T00:42:55;67.57;;;36.17;;
36379;SDS011;22411;53.016;18.632;2023-11-19T00:45:21;67.43;;;33.73;;
36379;SDS011;22411;53.016;18.632;2023-11-19T00:47:46;76.80;;;36.00;;
36379;SDS011;22411;53.016;18.632;2023-11-19T00:50:12;62.37;;;32.07;;
36379;SDS011;22411;53.016;18.632;2023-11-19T00:52:38;65.43;;;32.80;;
36379;SDS011;22411;53.016;18.632;2023-11-19T00:55:05;67.67;;;34.03;;
36379;SDS011;22411;53.016;18.632;2023-11-19T00:57:31;61.23;;;32.67;;
36379;SDS011;22411;53.016;18.632;2023-11-19T00:59:58;58.10;;;31.03;;
36379;SDS011;22411;53.016;18.632;2023-11-19T01:02:25;63.77;;;34.00;;
36379;SDS011;22411;53.016;18.632;2023-11-19T01:04:53;72.53;;;34.47;;
36379;SDS011;22411;53.016;18.632;2023-11-19T01:07:19;66.73;;;34.37;;
36379;SDS011;22411;53.016;18.632;2023-11-19T01:09:47;65.40;;;33.97;;
36379;SDS011;22411;53.016;18.632;2023-11-19T01:12:12;62.53;;;31.90;;
36379;SDS011;22411;53.016;18.632;2023-11-19T01:14:38;62.43;;;32.77;;
36379;SDS011;22411;53.016;18.632;2023-11-19T01:17:04;58.03;;;30.93;;
36379;SDS011;22411;53.016;18.632;2023-11-19T01:19:30;55.73;;;28.63;;
36379;SDS011;22411;53.016;18.632;2023-11-19T01:21:56;63.97;;;28.60;;
36379;SDS011;22411;53.016;18.632;2023-11-19T01:24:22;52.23;;;29.00;;
36379;SDS011;22411;53.016;18.632;2023-11-19T01:26:47;55.03;;;29.53;;
36379;SDS011;22411;53.016;18.632;2023-11-19T01:29:14;57.60;;;28.97;;
36379;SDS011;22411;53.016;18.632;2023-11-19T01:31:41;57.20;;;29.00;;
36379;SDS011;22411;53.016;18.632;2023-11-19T01:34:08;54.53;;;29.07;;
36379;SDS011;22411;53.016;18.632;2023-11-19T01:36:38;57.97;;;28.83;;
36379;SDS011;22411;53.016;18.632;2023-11-19T01:39:04;58.83;;;28.97;;
36379;SDS011;22411;53.016;18.632;2023-11-19T01:41:36;49.13;;;26.50;;
36379;SDS011;22411;53.016;18.632;2023-11-19T01:44:05;53.77;;;27.83;;
36379;SDS011;22411;53.016;18.632;2023-11-19T01:46:31;56.67;;;28.20;;
36379;SDS011;22411;53.016;18.632;2023-11-19T01:48:58;57.13;;;28.33;;
36379;SDS011;22411;53.016;18.632;2023-11-19T01:51:25;52.93;;;28.03;;
36379;SDS011;22411;53.016;18.632;2023-11-19T01:53:51;57.03;;;26.90;;
36379;SDS011;22411;53.016;18.632;2023-11-19T01:56:17;52.13;;;27.37;;
36379;SDS011;22411;53.016;18.632;2023-11-19T01:58:43;58.83;;;29.93;;
36379;SDS011;22411;53.016;18.632;2023-11-19T02:01:11;56.00;;;28.97;;
36379;SDS011;22411;53.016;18.632;2023-11-19T02:03:38;52.67;;;27.77;;
36379;SDS011;22411;53.016;18.632;2023-11-19T02:06:04;55.13;;;28.93;;
36379;SDS011;22411;53.016;18.632;2023-11-19T02:08:31;58.43;;;28.73;;
36379;SDS011;22411;53.016;18.632;2023-11-19T02:10:57;56.13;;;29.03;;
36379;SDS011;22411;53.016;18.632;2023-11-19T02:13:26;52.50;;;27.13;;
36379;SDS011;22411;53.016;18.632;2023-11-19T02:15:52;54.63;;;28.80;;
36379;SDS011;22411;53.016;18.632;2023-11-19T02:18:19;54.67;;;28.07;;
36379;SDS011;22411;53.016;18.632;2023-11-19T02:20:47;62.30;;;29.93;;
36379;SDS011;22411;53.016;18.632;2023-11-19T02:23:16;59.50;;;30.47;;
36379;SDS011;22411;53.016;18.632;2023-11-19T02:26:22;52.37;;;26.27;;
36379;SDS011;22411;53.016;18.632;2023-11-19T02:28:49;53.77;;;27.47;;
36379;SDS011;22411;53.016;18.632;2023-11-19T02:31:15;53.00;;;26.87;;
36379;SDS011;22411;53.016;18.632;2023-11-19T02:33:41;56.20;;;29.83;;
36379;SDS011;22411;53.016;18.632;2023-11-19T02:36:07;55.33;;;27.10;;
36379;SDS011;22411;53.016;18.632;2023-11-19T02:38:34;59.63;;;27.93;;
36379;SDS011;22411;53.016;18.632;2023-11-19T02:41:04;55.47;;;27.80;;
36379;SDS011;22411;53.016;18.632;2023-11-19T02:43:31;53.03;;;28.60;;
36379;SDS011;22411;53.016;18.632;2023-11-19T02:46:04;53.07;;;26.97;;
36379;SDS011;22411;53.016;18.632;2023-11-19T02:48:34;53.20;;;27.20;;
36379;SDS011;22411;53.016;18.632;2023-11-19T02:51:02;53.87;;;26.10;;
36379;SDS011;22411;53.016;18.632;2023-11-19T02:53:29;46.87;;;25.93;;
36379;SDS011;22411;53.016;18.632;2023-11-19T02:55:55;50.63;;;26.30;;
36379;SDS011;22411;53.016;18.632;2023-11-19T02:58:27;44.33;;;24.43;;
36379;SDS011;22411;53.016;18.632;2023-11-19T03:00:54;50.53;;;26.90;;
36379;SDS011;22411;53.016;18.632;2023-11-19T03:05:56;48.10;;;24.13;;
36379;SDS011;22411;53.016;18.632;2023-11-19T03:08:22;45.13;;;23.50;;
36379;SDS011;22411;53.016;18.632;2023-11-19T03:10:48;52.50;;;25.90;;
36379;SDS011;22411;53.016;18.632;2023-11-19T03:13:14;42.57;;;24.00;;
36379;SDS011;22411;53.016;18.632;2023-11-19T03:15:40;42.47;;;24.27;;
36379;SDS011;22411;53.016;18.632;2023-11-19T03:18:07;50.03;;;24.63;;
36379;SDS011;22411;53.016;18.632;2023-11-19T03:20:33;43.87;;;22.97;;
36379;SDS011;22411;53.016;18.632;2023-11-19T03:22:59;42.07;;;22.47;;
36379;SDS011;22411;53.016;18.632;2023-11-19T03:25:27;46.77;;;24.27;;
36379;SDS011;22411;53.016;18.632;2023-11-19T03:27:58;43.37;;;23.10;;
36379;SDS011;22411;53.016;18.632;2023-11-19T03:30:26;49.97;;;24.20;;
36379;SDS011;22411;53.016;18.632;2023-11-19T03:32:52;42.27;;;24.43;;
36379;SDS011;22411;53.016;18.632;2023-11-19T03:35:17;47.77;;;24.93;;
36379;SDS011;22411;53.016;18.632;2023-11-19T03:37:43;40.90;;;22.77;;
36379;SDS011;22411;53.016;18.632;2023-11-19T03:40:09;40.33;;;22.20;;
36379;SDS011;22411;53.016;18.632;2023-11-19T03:42:38;44.83;;;22.70;;
36379;SDS011;22411;53.016;18.632;2023-11-19T03:45:07;43.70;;;23.63;;
36379;SDS011;22411;53.016;18.632;2023-11-19T03:47:36;45.37;;;24.00;;
36379;SDS011;22411;53.016;18.632;2023-11-19T03:50:02;42.07;;;22.77;;
36379;SDS011;22411;53.016;18.632;2023-11-19T03:52:28;42.53;;;22.80;;
36379;SDS011;22411;53.016;18.632;2023-11-19T03:54:54;44.57;;;23.20;;
36379;SDS011;22411;53.016;18.632;2023-11-19T03:57:22;42.50;;;22.10;;
36379;SDS011;22411;53.016;18.632;2023-11-19T03:59:47;47.10;;;23.00;;
36379;SDS011;22411;53.016;18.632;2023-11-19T04:02:14;41.90;;;24.00;;
36379;SDS011;22411;53.016;18.632;2023-11-19T04:04:40;44.00;;;21.73;;
36379;SDS011;22411;53.016;18.632;2023-11-19T04:07:06;41.63;;;23.33;;
36379;SDS011;22411;53.016;18.632;2023-11-19T04:09:32;40.03;;;22.83;;
36379;SDS011;22411;53.016;18.632;2023-11-19T04:11:59;44.53;;;22.00;;
36379;SDS011;22411;53.016;18.632;2023-11-19T04:14:26;48.67;;;25.27;;
36379;SDS011;22411;53.016;18.632;2023-11-19T04:16:52;41.13;;;23.27;;
36379;SDS011;22411;53.016;18.632;2023-11-19T04:19:21;41.23;;;21.37;;
36379;SDS011;22411;53.016;18.632;2023-11-19T04:21:47;40.90;;;22.90;;
36379;SDS011;22411;53.016;18.632;2023-11-19T04:24:13;45.37;;;24.03;;
36379;SDS011;22411;53.016;18.632;2023-11-19T04:26:40;42.10;;;24.00;;
36379;SDS011;22411;53.016;18.632;2023-11-19T04:29:08;44.57;;;22.87;;
36379;SDS011;22411;53.016;18.632;2023-11-19T04:31:35;48.97;;;22.53;;
36379;SDS011;22411;53.016;18.632;2023-11-19T04:34:00;42.17;;;23.00;;
36379;SDS011;22411;53.016;18.632;2023-11-19T04:36:26;46.00;;;23.07;;
36379;SDS011;22411;53.016;18.632;2023-11-19T04:38:52;49.83;;;24.87;;
36379;SDS011;22411;53.016;18.632;2023-11-19T04:41:18;42.73;;;21.87;;
36379;SDS011;22411;53.016;18.632;2023-11-19T04:43:44;48.27;;;24.00;;
36379;SDS011;22411;53.016;18.632;2023-11-19T04:46:09;44.17;;;23.57;;
36379;SDS011;22411;53.016;18.632;2023-11-19T04:48:35;42.80;;;22.43;;
36379;SDS011;22411;53.016;18.632;2023-11-19T04:51:01;46.03;;;23.27;;
36379;SDS011;22411;53.016;18.632;2023-11-19T04:53:30;40.90;;;23.73;;
36379;SDS011;22411;53.016;18.632;2023-11-19T04:55:56;47.00;;;24.10;;
36379;SDS011;22411;53.016;18.632;2023-11-19T04:58:21;48.53;;;25.27;;
36379;SDS011;22411;53.016;18.632;2023-11-19T05:00:48;43.60;;;23.40;;
36379;SDS011;22411;53.016;18.632;2023-11-19T05:03:13;45.10;;;22.97;;
36379;SDS011;22411;53.016;18.632;2023-11-19T05:05:39;47.37;;;24.90;;
36379;SDS011;22411;53.016;18.632;2023-11-19T05:08:05;48.73;;;24.03;;
36379;SDS011;22411;53.016;18.632;2023-11-19T05:10:34;43.97;;;22.40;;
36379;SDS011;22411;53.016;18.632;2023-11-19T05:12:59;44.50;;;24.40;;
36379;SDS011;22411;53.016;18.632;2023-11-19T05:15:25;43.70;;;23.93;;
36379;SDS011;22411;53.016;18.632;2023-11-19T05:17:51;46.07;;;23.73;;
36379;SDS011;22411;53.016;18.632;2023-11-19T05:20:17;41.50;;;22.97;;
36379;SDS011;22411;53.016;18.632;2023-11-19T05:22:43;48.23;;;23.20;;
36379;SDS011;22411;53.016;18.632;2023-11-19T05:25:09;44.87;;;22.17;;
36379;SDS011;22411;53.016;18.632;2023-11-19T05:27:36;47.00;;;22.77;;
36379;SDS011;22411;53.016;18.632;2023-11-19T05:30:02;42.47;;;23.13;;
36379;SDS011;22411;53.016;18.632;2023-11-19T05:32:32;46.13;;;22.17;;
36379;SDS011;22411;53.016;18.632;2023-11-19T05:34:57;46.17;;;23.30;;
36379;SDS011;22411;53.016;18.632;2023-11-19T05:37:23;43.23;;;23.73;;
36379;SDS011;22411;53.016;18.632;2023-11-19T05:39:49;44.60;;;21.70;;
36379;SDS011;22411;53.016;18.632;2023-11-19T05:42:15;38.27;;;20.93;;
36379;SDS011;22411;53.016;18.632;2023-11-19T05:44:41;40.27;;;20.33;;
36379;SDS011;22411;53.016;18.632;2023-11-19T05:47:06;42.97;;;23.03;;
36379;SDS011;22411;53.016;18.632;2023-11-19T05:49:32;50.23;;;22.63;;
36379;SDS011;22411;53.016;18.632;2023-11-19T05:51:58;48.93;;;23.13;;
36379;SDS011;22411;53.016;18.632;2023-11-19T05:54:24;37.20;;;21.70;;
36379;SDS011;22411;53.016;18.632;2023-11-19T05:56:50;43.77;;;20.90;;
36379;SDS011;22411;53.016;18.632;2023-11-19T05:59:19;42.23;;;21.53;;
36379;SDS011;22411;53.016;18.632;2023-11-19T06:01:45;39.57;;;20.17;;
36379;SDS011;22411;53.016;18.632;2023-11-19T06:04:11;41.57;;;20.50;;
36379;SDS011;22411;53.016;18.632;2023-11-19T06:06:37;42.13;;;21.90;;
36379;SDS011;22411;53.016;18.632;2023-11-19T06:09:04;35.27;;;18.50;;
36379;SDS011;22411;53.016;18.632;2023-11-19T06:11:32;44.10;;;20.17;;
36379;SDS011;22411;53.016;18.632;2023-11-19T06:14:01;37.67;;;18.40;;
36379;SDS011;22411;53.016;18.632;2023-11-19T06:16:29;35.20;;;18.17;;
36379;SDS011;22411;53.016;18.632;2023-11-19T06:18:55;38.23;;;19.57;;
36379;SDS011;22411;53.016;18.632;2023-11-19T06:21:20;41.87;;;19.77;;
36379;SDS011;22411;53.016;18.632;2023-11-19T06:23:46;34.53;;;16.73;;
36379;SDS011;22411;53.016;18.632;2023-11-19T06:26:12;33.60;;;18.20;;
36379;SDS011;22411;53.016;18.632;2023-11-19T06:28:39;36.97;;;19.23;;
36379;SDS011;22411;53.016;18.632;2023-11-19T06:31:05;34.27;;;17.77;;
36379;SDS011;22411;53.016;18.632;2023-11-19T06:33:31;31.40;;;18.40;;
36379;SDS011;22411;53.016;18.632;2023-11-19T06:35:57;37.43;;;19.30;;
36379;SDS011;22411;53.016;18.632;2023-11-19T06:38:22;34.40;;;17.10;;
36379;SDS011;22411;53.016;18.632;2023-11-19T06:40:48;32.70;;;17.90;;
36379;SDS011;22411;53.016;18.632;2023-11-19T06:43:14;32.87;;;16.40;;
36379;SDS011;22411;53.016;18.632;2023-11-19T06:45:40;33.80;;;17.13;;
36379;SDS011;22411;53.016;18.632;2023-11-19T06:48:06;36.87;;;18.70;;
36379;SDS011;22411;53.016;18.632;2023-11-19T06:50:32;35.53;;;18.13;;
36379;SDS011;22411;53.016;18.632;2023-11-19T06:52:59;37.10;;;17.57;;
36379;SDS011;22411;53.016;18.632;2023-11-19T06:55:25;39.43;;;21.33;;
36379;SDS011;22411;53.016;18.632;2023-11-19T06:57:52;65.77;;;35.70;;
36379;SDS011;22411;53.016;18.632;2023-11-19T07:00:17;52.43;;;28.33;;
36379;SDS011;22411;53.016;18.632;2023-11-19T07:02:44;48.40;;;26.07;;
36379;SDS011;22411;53.016;18.632;2023-11-19T07:05:09;37.93;;;21.13;;
36379;SDS011;22411;53.016;18.632;2023-11-19T07:07:37;68.47;;;32.70;;
36379;SDS011;22411;53.016;18.632;2023-11-19T07:10:03;147.27;;;67.90;;
36379;SDS011;22411;53.016;18.632;2023-11-19T07:12:31;75.23;;;33.03;;
36379;SDS011;22411;53.016;18.632;2023-11-19T07:14:57;186.57;;;78.30;;
36379;SDS011;22411;53.016;18.632;2023-11-19T07:17:23;226.53;;;94.77;;
36379;SDS011;22411;53.016;18.632;2023-11-19T07:19:49;125.33;;;55.10;;
36379;SDS011;22411;53.016;18.632;2023-11-19T07:22:15;278.97;;;106.47;;
36379;SDS011;22411;53.016;18.632;2023-11-19T07:24:41;359.00;;;156.83;;
36379;SDS011;22411;53.016;18.632;2023-11-19T07:27:07;359.43;;;146.90;;
36379;SDS011;22411;53.016;18.632;2023-11-19T07:29:34;293.73;;;139.13;;
36379;SDS011;22411;53.016;18.632;2023-11-19T07:32:01;180.37;;;93.30;;
36379;SDS011;22411;53.016;18.632;2023-11-19T07:34:27;72.80;;;43.93;;
36379;SDS011;22411;53.016;18.632;2023-11-19T07:36:54;46.37;;;26.57;;
36379;SDS011;22411;53.016;18.632;2023-11-19T07:39:24;50.30;;;31.13;;
36379;SDS011;22411;53.016;18.632;2023-11-19T07:41:50;60.20;;;38.23;;
36379;SDS011;22411;53.016;18.632;2023-11-19T07:44:16;43.60;;;25.87;;
36379;SDS011;22411;53.016;18.632;2023-11-19T07:46:42;45.37;;;22.93;;
36379;SDS011;22411;53.016;18.632;2023-11-19T07:49:07;47.50;;;25.67;;
36379;SDS011;22411;53.016;18.632;2023-11-19T07:51:35;68.87;;;35.43;;
36379;SDS011;22411;53.016;18.632;2023-11-19T07:54:01;51.03;;;29.50;;
36379;SDS011;22411;53.016;18.632;2023-11-19T07:56:27;52.23;;;25.97;;
36379;SDS011;22411;53.016;18.632;2023-11-19T07:58:53;47.53;;;23.87;;
36379;SDS011;22411;53.016;18.632;2023-11-19T08:01:19;49.83;;;26.73;;
36379;SDS011;22411;53.016;18.632;2023-11-19T08:03:44;43.30;;;25.70;;
36379;SDS011;22411;53.016;18.632;2023-11-19T08:06:10;64.60;;;33.20;;
36379;SDS011;22411;53.016;18.632;2023-11-19T08:08:36;49.40;;;27.63;;
36379;SDS011;22411;53.016;18.632;2023-11-19T08:11:04;59.80;;;29.40;;
36379;SDS011;22411;53.016;18.632;2023-11-19T08:13:30;54.30;;;29.33;;
36379;SDS011;22411;53.016;18.632;2023-11-19T08:15:58;55.23;;;29.80;;
36379;SDS011;22411;53.016;18.632;2023-11-19T08:18:23;60.00;;;31.20;;
36379;SDS011;22411;53.016;18.632;2023-11-19T08:20:50;65.53;;;32.50;;
36379;SDS011;22411;53.016;18.632;2023-11-19T08:23:20;44.28;;;23.05;;
36379;SDS011;22411;53.016;18.632;2023-11-19T08:25:46;55.90;;;28.83;;
36379;SDS011;22411;53.016;18.632;2023-11-19T08:28:13;57.57;;;30.03;;
36379;SDS011;22411;53.016;18.632;2023-11-19T08:30:38;51.40;;;26.13;;
36379;SDS011;22411;53.016;18.632;2023-11-19T08:33:04;45.33;;;23.33;;
36379;SDS011;22411;53.016;18.632;2023-11-19T08:35:31;64.67;;;32.07;;
36379;SDS011;22411;53.016;18.632;2023-11-19T08:37:57;56.07;;;28.37;;
36379;SDS011;22411;53.016;18.632;2023-11-19T08:40:24;106.73;;;46.00;;
36379;SDS011;22411;53.016;18.632;2023-11-19T08:42:53;105.23;;;46.17;;
36379;SDS011;22411;53.016;18.632;2023-11-19T08:45:19;73.33;;;35.70;;
36379;SDS011;22411;53.016;18.632;2023-11-19T08:47:45;84.33;;;39.17;;
36379;SDS011;22411;53.016;18.632;2023-11-19T08:50:11;78.33;;;35.00;;
36379;SDS011;22411;53.016;18.632;2023-11-19T08:52:37;57.03;;;29.67;;
36379;SDS011;22411;53.016;18.632;2023-11-19T08:55:04;53.10;;;26.47;;
36379;SDS011;22411;53.016;18.632;2023-11-19T08:57:31;70.67;;;36.53;;
36379;SDS011;22411;53.016;18.632;2023-11-19T08:59:58;63.60;;;34.47;;
36379;SDS011;22411;53.016;18.632;2023-11-19T09:02:24;55.63;;;28.73;;
36379;SDS011;22411;53.016;18.632;2023-11-19T09:04:50;60.67;;;31.10;;
36379;SDS011;22411;53.016;18.632;2023-11-19T09:07:16;57.80;;;29.33;;
36379;SDS011;22411;53.016;18.632;2023-11-19T09:09:42;61.30;;;30.20;;
36379;SDS011;22411;53.016;18.632;2023-11-19T09:12:08;77.27;;;35.83;;
36379;SDS011;22411;53.016;18.632;2023-11-19T09:14:34;62.07;;;30.07;;
36379;SDS011;22411;53.016;18.632;2023-11-19T09:17:00;55.70;;;27.07;;
36379;SDS011;22411;53.016;18.632;2023-11-19T09:19:26;54.33;;;28.63;;
36379;SDS011;22411;53.016;18.632;2023-11-19T09:21:52;57.23;;;28.20;;
36379;SDS011;22411;53.016;18.632;2023-11-19T09:24:18;65.43;;;35.90;;
36379;SDS011;22411;53.016;18.632;2023-11-19T09:26:44;59.73;;;32.77;;
36379;SDS011;22411;53.016;18.632;2023-11-19T09:29:10;56.90;;;27.17;;
36379;SDS011;22411;53.016;18.632;2023-11-19T09:31:39;58.17;;;26.43;;
36379;SDS011;22411;53.016;18.632;2023-11-19T09:34:06;63.43;;;30.03;;
36379;SDS011;22411;53.016;18.632;2023-11-19T09:36:32;53.23;;;27.23;;
36379;SDS011;22411;53.016;18.632;2023-11-19T09:38:58;52.03;;;23.60;;
36379;SDS011;22411;53.016;18.632;2023-11-19T09:41:25;58.37;;;26.03;;
36379;SDS011;22411;53.016;18.632;2023-11-19T09:43:53;49.33;;;23.73;;
36379;SDS011;22411;53.016;18.632;2023-11-19T09:46:19;52.00;;;25.67;;
36379;SDS011;22411;53.016;18.632;2023-11-19T09:48:45;55.40;;;29.60;;
36379;SDS011;22411;53.016;18.632;2023-11-19T09:51:13;54.87;;;27.60;;
36379;SDS011;22411;53.016;18.632;2023-11-19T09:53:39;58.53;;;28.43;;
36379;SDS011;22411;53.016;18.632;2023-11-19T09:56:05;54.73;;;26.83;;
36379;SDS011;22411;53.016;18.632;2023-11-19T09:58:33;50.33;;;25.47;;
36379;SDS011;22411;53.016;18.632;2023-11-19T10:00:59;55.00;;;26.87;;
36379;SDS011;22411;53.016;18.632;2023-11-19T10:03:26;51.03;;;27.23;;
36379;SDS011;22411;53.016;18.632;2023-11-19T10:05:55;48.77;;;26.50;;
36379;SDS011;22411;53.016;18.632;2023-11-19T10:08:21;62.40;;;33.70;;
36379;SDS011;22411;53.016;18.632;2023-11-19T10:10:47;57.83;;;32.17;;
36379;SDS011;22411;53.016;18.632;2023-11-19T10:13:13;60.50;;;32.37;;
36379;SDS011;22411;53.016;18.632;2023-11-19T10:15:40;60.10;;;34.43;;
36379;SDS011;22411;53.016;18.632;2023-11-19T10:18:06;52.70;;;28.53;;
36379;SDS011;22411;53.016;18.632;2023-11-19T10:20:35;61.83;;;33.00;;
36379;SDS011;22411;53.016;18.632;2023-11-19T10:23:02;49.40;;;26.47;;
36379;SDS011;22411;53.016;18.632;2023-11-19T10:25:29;84.03;;;39.83;;
36379;SDS011;22411;53.016;18.632;2023-11-19T10:27:55;59.73;;;31.97;;
36379;SDS011;22411;53.016;18.632;2023-11-19T10:30:26;80.00;;;40.90;;
36379;SDS011;22411;53.016;18.632;2023-11-19T10:33:08;80.90;;;41.43;;
36379;SDS011;22411;53.016;18.632;2023-11-19T10:35:55;88.50;;;45.60;;
36379;SDS011;22411;53.016;18.632;2023-11-19T10:38:23;99.77;;;53.93;;
36379;SDS011;22411;53.016;18.632;2023-11-19T10:40:50;72.73;;;39.17;;
36379;SDS011;22411;53.016;18.632;2023-11-19T10:43:19;65.13;;;36.20;;
36379;SDS011;22411;53.016;18.632;2023-11-19T10:45:47;53.20;;;29.92;;
36379;SDS011;22411;53.016;18.632;2023-11-19T10:48:13;52.60;;;29.73;;
36379;SDS011;22411;53.016;18.632;2023-11-19T10:50:40;55.27;;;31.60;;
36379;SDS011;22411;53.016;18.632;2023-11-19T10:53:08;85.87;;;50.13;;
36379;SDS011;22411;53.016;18.632;2023-11-19T10:55:38;81.80;;;48.97;;
36379;SDS011;22411;53.016;18.632;2023-11-19T10:58:05;68.17;;;40.13;;
36379;SDS011;22411;53.016;18.632;2023-11-19T11:03:09;77.47;;;45.60;;
36379;SDS011;22411;53.016;18.632;2023-11-19T11:05:36;60.95;;;37.00;;
36379;SDS011;22411;53.016;18.632;2023-11-19T11:08:04;61.27;;;34.97;;
36379;SDS011;22411;53.016;18.632;2023-11-19T11:10:32;61.97;;;37.40;;
36379;SDS011;22411;53.016;18.632;2023-11-19T11:13:05;65.70;;;39.00;;
36379;SDS011;22411;53.016;18.632;2023-11-19T11:15:31;46.67;;;25.30;;
36379;SDS011;22411;53.016;18.632;2023-11-19T11:18:01;58.33;;;30.87;;
36379;SDS011;22411;53.016;18.632;2023-11-19T11:20:31;56.08;;;31.15;;
36379;SDS011;22411;53.016;18.632;2023-11-19T11:23:10;56.13;;;29.67;;
36379;SDS011;22411;53.016;18.632;2023-11-19T11:28:59;42.23;;;23.37;;
36379;SDS011;22411;53.016;18.632;2023-11-19T11:40:02;57.27;;;30.13;;
36379;SDS011;22411;53.016;18.632;2023-11-19T11:42:35;63.50;;;32.07;;
36379;SDS011;22411;53.016;18.632;2023-11-19T11:45:06;52.13;;;26.43;;
36379;SDS011;22411;53.016;18.632;2023-11-19T11:50:09;54.00;;;28.23;;
36379;SDS011;22411;53.016;18.632;2023-11-19T11:53:13;54.43;;;28.80;;
36379;SDS011;22411;53.016;18.632;2023-11-19T11:58:07;61.83;;;35.07;;
36379;SDS011;22411;53.016;18.632;2023-11-19T12:00:38;65.57;;;36.40;;
36379;SDS011;22411;53.016;18.632;2023-11-19T12:03:05;163.55;;;69.97;;
36379;SDS011;22411;53.016;18.632;2023-11-19T12:05:33;179.63;;;74.40;;
36379;SDS011;22411;53.016;18.632;2023-11-19T12:08:10;110.57;;;51.13;;
36379;SDS011;22411;53.016;18.632;2023-11-19T12:10:45;95.37;;;44.10;;
36379;SDS011;22411;53.016;18.632;2023-11-19T12:13:15;99.30;;;47.37;;
36379;SDS011;22411;53.016;18.632;2023-11-19T12:18:26;69.40;;;35.63;;
36379;SDS011;22411;53.016;18.632;2023-11-19T12:20:53;74.90;;;41.90;;
36379;SDS011;22411;53.016;18.632;2023-11-19T12:23:20;62.53;;;32.43;;
36379;SDS011;22411;53.016;18.632;2023-11-19T12:25:46;73.03;;;39.43;;
36379;SDS011;22411;53.016;18.632;2023-11-19T12:28:12;58.37;;;30.83;;
36379;SDS011;22411;53.016;18.632;2023-11-19T12:30:39;61.60;;;30.57;;
36379;SDS011;22411;53.016;18.632;2023-11-19T12:33:08;57.43;;;28.07;;
36379;SDS011;22411;53.016;18.632;2023-11-19T12:35:40;52.83;;;25.50;;
36379;SDS011;22411;53.016;18.632;2023-11-19T12:38:08;52.97;;;25.58;;
36379;SDS011;22411;53.016;18.632;2023-11-19T12:40:43;52.33;;;23.87;;
36379;SDS011;22411;53.016;18.632;2023-11-19T12:43:09;52.93;;;25.87;;
36379;SDS011;22411;53.016;18.632;2023-11-19T12:45:42;61.07;;;30.70;;
36379;SDS011;22411;53.016;18.632;2023-11-19T12:48:08;54.07;;;26.17;;
36379;SDS011;22411;53.016;18.632;2023-11-19T12:50:56;62.70;;;31.13;;
36379;SDS011;22411;53.016;18.632;2023-11-19T12:53:23;57.07;;;27.23;;
36379;SDS011;22411;53.016;18.632;2023-11-19T12:55:53;64.77;;;29.97;;
36379;SDS011;22411;53.016;18.632;2023-11-19T12:58:30;91.57;;;38.50;;
36379;SDS011;22411;53.016;18.632;2023-11-19T13:01:00;79.90;;;33.07;;
36379;SDS011;22411;53.016;18.632;2023-11-19T13:03:32;79.97;;;33.80;;
36379;SDS011;22411;53.016;18.632;2023-11-19T13:06:04;88.53;;;35.97;;
36379;SDS011;22411;53.016;18.632;2023-11-19T13:08:40;58.38;;;27.33;;
36379;SDS011;22411;53.016;18.632;2023-11-19T13:11:34;50.50;;;26.70;;
36379;SDS011;22411;53.016;18.632;2023-11-19T13:14:03;75.93;;;40.23;;
36379;SDS011;22411;53.016;18.632;2023-11-19T13:16:30;62.57;;;29.93;;
36379;SDS011;22411;53.016;18.632;2023-11-19T13:18:56;66.87;;;39.83;;
36379;SDS011;22411;53.016;18.632;2023-11-19T13:21:23;62.83;;;35.50;;
36379;SDS011;22411;53.016;18.632;2023-11-19T13:23:49;53.13;;;29.47;;
36379;SDS011;22411;53.016;18.632;2023-11-19T13:26:15;56.73;;;32.10;;
36379;SDS011;22411;53.016;18.632;2023-11-19T13:28:41;56.73;;;29.53;;
36379;SDS011;22411;53.016;18.632;2023-11-19T13:31:07;53.43;;;27.37;;
36379;SDS011;22411;53.016;18.632;2023-11-19T13:33:34;51.27;;;27.03;;
36379;SDS011;22411;53.016;18.632;2023-11-19T13:36:03;57.47;;;26.97;;
36379;SDS011;22411;53.016;18.632;2023-11-19T13:38:36;51.73;;;24.47;;
36379;SDS011;22411;53.016;18.632;2023-11-19T13:41:03;54.03;;;30.50;;
36379;SDS011;22411;53.016;18.632;2023-11-19T13:43:32;67.53;;;33.53;;
36379;SDS011;22411;53.016;18.632;2023-11-19T13:48:31;54.93;;;28.17;;
36379;SDS011;22411;53.016;18.632;2023-11-19T13:50:57;50.20;;;27.70;;
36379;SDS011;22411;53.016;18.632;2023-11-19T13:53:23;68.77;;;40.73;;
36379;SDS011;22411;53.016;18.632;2023-11-19T13:55:50;59.60;;;33.63;;
36379;SDS011;22411;53.016;18.632;2023-11-19T13:58:16;52.27;;;27.57;;
36379;SDS011;22411;53.016;18.632;2023-11-19T14:00:42;50.33;;;24.67;;
36379;SDS011;22411;53.016;18.632;2023-11-19T14:03:08;57.33;;;28.33;;
36379;SDS011;22411;53.016;18.632;2023-11-19T14:05:37;56.60;;;30.97;;
36379;SDS011;22411;53.016;18.632;2023-11-19T14:08:09;60.53;;;30.40;;
36379;SDS011;22411;53.016;18.632;2023-11-19T14:10:39;47.63;;;24.90;;
36379;SDS011;22411;53.016;18.632;2023-11-19T14:13:08;50.07;;;24.17;;
36379;SDS011;22411;53.016;18.632;2023-11-19T14:15:34;46.40;;;21.47;;
36379;SDS011;22411;53.016;18.632;2023-11-19T14:18:01;52.27;;;24.40;;
36379;SDS011;22411;53.016;18.632;2023-11-19T14:20:29;47.30;;;22.03;;
36379;SDS011;22411;53.016;18.632;2023-11-19T14:22:55;54.77;;;22.73;;
36379;SDS011;22411;53.016;18.632;2023-11-19T14:25:20;65.43;;;36.73;;
36379;SDS011;22411;53.016;18.632;2023-11-19T14:27:49;58.20;;;31.50;;
36379;SDS011;22411;53.016;18.632;2023-11-19T14:30:20;69.05;;;31.17;;
36379;SDS011;22411;53.016;18.632;2023-11-19T14:32:45;53.13;;;26.00;;
36379;SDS011;22411;53.016;18.632;2023-11-19T14:35:15;56.77;;;27.23;;
36379;SDS011;22411;53.016;18.632;2023-11-19T14:37:41;58.47;;;27.57;;